createdAt,value
2023-01-06T00:01:28.577Z,11.90
2023-01-06T00:03:59.634Z,11.90
2023-01-06T00:06:29.441Z,11.80
2023-01-06T00:09:00.907Z,11.80
2023-01-06T00:11:29.169Z,11.80
2023-01-06T00:13:57.773Z,11.70
2023-01-06T00:16:26.494Z,11.70
2023-01-06T00:18:57.098Z,11.70
2023-01-06T00:21:25.652Z,11.70
2023-01-06T00:23:54.438Z,11.70
2023-01-06T00:26:24.453Z,11.60
2023-01-06T00:28:54.711Z,11.60
2023-01-06T00:31:23.991Z,11.80
2023-01-06T00:33:52.579Z,11.70
2023-01-06T00:36:21.836Z,11.70
2023-01-06T00:38:51.032Z,11.70
2023-01-06T00:41:36.916Z,11.70
2023-01-06T00:44:07.716Z,11.70
2023-01-06T00:46:36.276Z,11.80
2023-01-06T00:49:07.219Z,11.80
2023-01-06T00:51:37.967Z,11.80
2023-01-06T00:54:06.688Z,11.80
2023-01-06T00:56:37.780Z,11.70
2023-01-06T00:59:08.078Z,11.80
2023-01-06T01:01:37.333Z,11.80
2023-01-06T01:04:06.205Z,11.80
2023-01-06T01:06:35.023Z,11.80
2023-01-06T01:09:03.644Z,11.90
2023-01-06T01:11:49.774Z,11.90
2023-01-06T01:14:21.307Z,11.80
2023-01-06T01:16:49.849Z,11.70
2023-01-06T01:19:18.882Z,11.70
2023-01-06T01:21:47.153Z,11.80
2023-01-06T01:24:15.592Z,11.70
2023-01-06T01:26:44.295Z,11.60
2023-01-06T01:29:16.394Z,11.80
2023-01-06T01:31:46.728Z,11.90
2023-01-06T01:34:16.557Z,11.80
2023-01-06T01:36:46.661Z,11.80
2023-01-06T01:39:17.379Z,11.70
2023-01-06T01:41:45.897Z,11.70
2023-01-06T01:44:51.645Z,11.80
2023-01-06T01:47:26.174Z,11.90
2023-01-06T01:49:58.637Z,11.80
2023-01-06T01:52:27.771Z,11.80
2023-01-06T01:54:57.443Z,11.90
2023-01-06T01:57:33.617Z,11.80
2023-01-06T02:00:04.360Z,11.80
2023-01-06T02:02:34.862Z,11.80
2023-01-06T02:05:05.013Z,11.80
2023-01-06T02:07:33.608Z,11.80
2023-01-06T02:10:09.296Z,11.70
2023-01-06T02:12:38.147Z,11.60
2023-01-06T02:15:16.591Z,11.60
2023-01-06T02:18:33.260Z,11.50
2023-01-06T02:21:27.287Z,11.60
2023-01-06T02:24:26.705Z,11.60
2023-01-06T02:27:18.178Z,11.60
2023-01-06T02:30:16.307Z,11.60
2023-01-06T02:32:57.213Z,11.50
2023-01-06T02:35:46.919Z,11.50
2023-01-06T02:38:28.183Z,11.50
2023-01-06T02:41:13.871Z,11.50
2023-01-06T02:43:52.200Z,11.60
2023-01-06T02:46:29.269Z,11.60
2023-01-06T02:49:10.922Z,11.50
2023-01-06T02:51:47.980Z,11.60
2023-01-06T02:54:21.880Z,11.50
2023-01-06T02:56:55.561Z,11.50
2023-01-06T02:59:31.270Z,11.50
2023-01-06T03:02:02.173Z,11.50
2023-01-06T03:04:36.448Z,11.50
2023-01-06T03:07:07.669Z,11.50
2023-01-06T03:09:39.972Z,11.50
2023-01-06T03:12:13.707Z,11.50
2023-01-06T03:14:46.166Z,11.60
2023-01-06T03:17:14.631Z,11.50
2023-01-06T03:19:45.309Z,11.50
2023-01-06T03:22:14.420Z,11.50
2023-01-06T03:24:44.441Z,11.50
2023-01-06T03:27:12.811Z,11.40
2023-01-06T03:29:41.465Z,11.30
2023-01-06T03:32:18.466Z,11.40
2023-01-06T03:35:03.753Z,11.50
2023-01-06T03:37:41.300Z,11.50
2023-01-06T03:40:13.941Z,11.50
2023-01-06T03:43:03.373Z,11.50
2023-01-06T03:45:52.526Z,11.40
2023-01-06T03:48:27.064Z,11.40
2023-01-06T03:51:03.309Z,11.40
2023-01-06T03:53:38.746Z,11.50
2023-01-06T03:56:15.556Z,11.50
2023-01-06T03:58:46.138Z,11.50
2023-01-06T04:01:16.127Z,11.50
2023-01-06T04:03:47.423Z,11.50
2023-01-06T04:06:17.289Z,11.40
2023-01-06T04:08:45.659Z,11.40
2023-01-06T04:11:34.726Z,11.30
2023-01-06T04:14:02.254Z,11.50
2023-01-06T04:16:30.470Z,11.50
2023-01-06T04:18:58.762Z,11.60
2023-01-06T04:21:28.474Z,11.60
2023-01-06T04:23:56.834Z,11.60
2023-01-06T04:26:25.407Z,11.60
2023-01-06T04:28:54.123Z,11.50
2023-01-06T04:31:22.336Z,11.40
2023-01-06T04:33:52.776Z,11.40
2023-01-06T04:36:21.660Z,11.50
2023-01-06T04:38:51.592Z,11.50
2023-01-06T04:41:19.779Z,11.40
2023-01-06T04:43:48.282Z,11.40
2023-01-06T04:46:16.748Z,11.40
2023-01-06T04:48:44.928Z,11.40
2023-01-06T04:51:13.564Z,11.40
2023-01-06T04:53:42.983Z,11.40
2023-01-06T04:56:13.707Z,11.40
2023-01-06T04:58:42.207Z,11.40
2023-01-06T05:01:12.620Z,11.40
2023-01-06T05:03:42.061Z,11.40
2023-01-06T05:06:12.079Z,11.40
2023-01-06T05:08:41.952Z,11.40
2023-01-06T05:11:13.892Z,11.30
2023-01-06T05:13:42.503Z,11.40
2023-01-06T05:16:12.581Z,11.50
2023-01-06T05:18:41.030Z,11.30
2023-01-06T05:21:09.913Z,11.30
2023-01-06T05:23:38.544Z,11.40
2023-01-06T05:26:07.420Z,11.30
2023-01-06T05:28:37.512Z,11.30
2023-01-06T05:31:06.769Z,11.40
2023-01-06T05:33:35.563Z,11.40
2023-01-06T05:36:07.109Z,11.40
2023-01-06T05:38:35.554Z,11.40
2023-01-06T05:41:04.060Z,11.40
2023-01-06T05:43:34.889Z,11.50
2023-01-06T05:46:08.544Z,11.50
2023-01-06T05:48:37.376Z,11.40
2023-01-06T05:51:07.222Z,11.50
2023-01-06T05:53:37.536Z,11.40
2023-01-06T05:56:08.226Z,11.40
2023-01-06T05:58:40.269Z,11.40
2023-01-06T06:01:17.608Z,11.40
2023-01-06T06:03:46.512Z,11.30
2023-01-06T06:06:14.804Z,11.50
2023-01-06T06:08:43.811Z,11.50
2023-01-06T06:11:14.053Z,11.50
2023-01-06T06:13:47.321Z,11.40
2023-01-06T06:16:18.842Z,11.30
2023-01-06T06:18:51.266Z,11.40
2023-01-06T06:21:21.149Z,11.40
2023-01-06T06:23:50.099Z,11.40
2023-01-06T06:26:18.651Z,11.40
2023-01-06T06:28:46.894Z,11.40
2023-01-06T06:31:18.840Z,11.40
2023-01-06T06:33:47.260Z,11.50
2023-01-06T06:36:16.476Z,11.50
2023-01-06T06:38:45.793Z,11.50
2023-01-06T06:41:14.953Z,11.50
2023-01-06T06:43:43.481Z,11.50
2023-01-06T06:46:12.351Z,11.50
2023-01-06T06:48:42.419Z,11.40
2023-01-06T06:51:12.668Z,11.40
2023-01-06T06:53:41.564Z,11.40
2023-01-06T06:56:11.783Z,11.40
2023-01-06T06:58:40.310Z,11.40
2023-01-06T07:01:09.560Z,11.50
2023-01-06T07:03:38.163Z,11.40
2023-01-06T07:06:09.942Z,11.40
2023-01-06T07:08:38.667Z,11.40
2023-01-06T07:11:07.106Z,11.40
2023-01-06T07:13:35.523Z,11.30
2023-01-06T07:16:03.771Z,11.40
2023-01-06T07:18:32.272Z,11.40
2023-01-06T07:21:00.734Z,11.40
2023-01-06T07:23:30.558Z,11.40
2023-01-06T07:26:00.703Z,11.30
2023-01-06T07:28:30.353Z,11.40
2023-01-06T07:30:58.673Z,11.40
2023-01-06T07:33:27.367Z,11.40
2023-01-06T07:35:56.936Z,11.40
2023-01-06T07:38:25.953Z,11.40
2023-01-06T07:41:01.329Z,11.40
2023-01-06T07:43:30.204Z,11.40
2023-01-06T07:45:58.462Z,11.40
2023-01-06T07:48:27.039Z,11.50
2023-01-06T07:50:55.193Z,11.40
2023-01-06T07:53:23.644Z,11.40
2023-01-06T07:55:53.670Z,11.40
2023-01-06T07:58:25.044Z,11.40
2023-01-06T08:00:53.554Z,11.40
2023-01-06T08:03:22.091Z,11.40
2023-01-06T08:05:50.402Z,11.50
2023-01-06T08:08:18.735Z,11.40
2023-01-06T08:10:47.043Z,11.40
2023-01-06T08:13:15.228Z,11.50
2023-01-06T08:15:45.048Z,11.50
2023-01-06T08:18:13.567Z,11.60
2023-01-06T08:20:41.733Z,11.60
2023-01-06T08:23:10.032Z,11.60
2023-01-06T08:25:38.405Z,11.60
2023-01-06T08:28:06.920Z,11.60
2023-01-06T08:30:40.241Z,11.60
2023-01-06T08:33:09.818Z,11.70
2023-01-06T08:35:38.212Z,11.70
2023-01-06T08:38:06.503Z,11.70
2023-01-06T08:40:34.726Z,11.70
2023-01-06T08:43:03.115Z,11.70
2023-01-06T08:45:31.402Z,11.80
2023-01-06T08:47:59.754Z,11.80
2023-01-06T08:50:29.644Z,11.80
2023-01-06T08:52:58.137Z,11.80
2023-01-06T08:55:26.808Z,11.80
2023-01-06T08:57:55.532Z,11.70
2023-01-06T09:00:23.867Z,11.80
2023-01-06T09:02:52.356Z,11.80
2023-01-06T09:05:20.951Z,11.80
2023-01-06T09:07:50.932Z,11.90
2023-01-06T09:10:20.279Z,12.00
2023-01-06T09:12:49.191Z,12.00
2023-01-06T09:15:17.553Z,11.90
2023-01-06T09:17:46.115Z,11.80
2023-01-06T09:20:14.724Z,11.80
2023-01-06T09:22:42.960Z,11.90
2023-01-06T09:25:13.188Z,11.90
2023-01-06T09:27:41.519Z,12.00
2023-01-06T09:30:10.806Z,11.90
2023-01-06T09:32:39.235Z,12.00
2023-01-06T09:35:08.911Z,12.00
2023-01-06T09:37:37.211Z,11.90
2023-01-06T09:40:06.767Z,12.00
2023-01-06T09:42:57.534Z,12.00
2023-01-06T09:45:36.613Z,11.90
2023-01-06T09:48:07.775Z,12.00
2023-01-06T09:50:39.277Z,12.10
2023-01-06T09:53:14.205Z,12.10
2023-01-06T09:55:45.437Z,12.10
2023-01-06T09:58:18.125Z,12.10
2023-01-06T10:00:48.780Z,12.20
2023-01-06T10:03:20.201Z,12.10
2023-01-06T10:06:05.331Z,12.00
2023-01-06T10:08:42.705Z,12.00
2023-01-06T10:11:16.067Z,12.00
2023-01-06T10:13:57.719Z,12.00
2023-01-06T10:16:36.555Z,12.10
2023-01-06T10:19:18.105Z,12.10
2023-01-06T10:21:51.093Z,12.10
2023-01-06T10:24:44.094Z,12.10
2023-01-06T10:27:24.863Z,12.10
2023-01-06T10:29:57.535Z,12.20
2023-01-06T10:32:30.876Z,12.10
2023-01-06T10:35:00.894Z,12.20
2023-01-06T10:37:35.864Z,12.20
2023-01-06T10:40:16.298Z,12.20
2023-01-06T10:42:57.641Z,12.20
2023-01-06T10:45:33.129Z,12.30
2023-01-06T10:48:02.717Z,12.20
2023-01-06T10:50:31.298Z,12.20
2023-01-06T10:52:59.514Z,12.10
2023-01-06T10:55:40.910Z,12.10
2023-01-06T10:58:20.673Z,12.30
2023-01-06T11:01:02.167Z,12.30
2023-01-06T11:03:33.793Z,12.20
2023-01-06T11:06:11.947Z,12.20
2023-01-06T11:08:41.608Z,12.10
2023-01-06T11:11:27.285Z,12.10
2023-01-06T11:13:58.544Z,12.10
2023-01-06T11:16:30.927Z,12.30
2023-01-06T11:19:01.884Z,12.30
2023-01-06T11:21:41.530Z,12.30
2023-01-06T11:24:19.325Z,12.30
2023-01-06T11:26:52.842Z,12.20
2023-01-06T11:29:27.037Z,12.20
2023-01-06T11:31:58.095Z,12.30
2023-01-06T11:34:29.243Z,12.20
2023-01-06T11:36:58.302Z,12.20
2023-01-06T11:39:30.196Z,12.20
2023-01-06T11:42:04.416Z,12.20
2023-01-06T11:44:35.067Z,12.30
2023-01-06T11:47:08.668Z,12.30
2023-01-06T11:49:38.214Z,12.20
2023-01-06T11:52:08.491Z,12.30
2023-01-06T11:54:39.423Z,12.30
2023-01-06T11:57:22.818Z,12.40
2023-01-06T12:00:05.952Z,12.40
2023-01-06T12:02:47.015Z,12.50
2023-01-06T12:05:26.586Z,12.50
2023-01-06T12:07:57.731Z,12.50
2023-01-06T12:10:30.613Z,12.40
2023-01-06T12:12:59.007Z,12.50
2023-01-06T12:15:31.433Z,12.60
2023-01-06T12:18:05.439Z,12.50
2023-01-06T12:20:36.992Z,12.60
2023-01-06T12:23:08.769Z,12.60
2023-01-06T12:25:40.627Z,12.70
2023-01-06T12:28:16.757Z,12.80
2023-01-06T12:30:52.665Z,12.80
2023-01-06T12:33:32.263Z,12.90
2023-01-06T12:36:04.499Z,12.90
2023-01-06T12:38:44.075Z,12.90
2023-01-06T12:41:23.660Z,12.80
2023-01-06T12:43:58.651Z,12.90
2023-01-06T12:46:35.955Z,12.90
2023-01-06T12:49:10.063Z,12.90
2023-01-06T12:51:42.284Z,12.90
2023-01-06T12:54:17.975Z,12.90
2023-01-06T12:56:58.486Z,13.10
2023-01-06T12:59:34.659Z,13.10
2023-01-06T13:02:17.730Z,13.10
2023-01-06T13:05:01.133Z,12.90
2023-01-06T13:07:41.253Z,12.90
2023-01-06T13:10:21.652Z,12.90
2023-01-06T13:13:06.938Z,13.00
2023-01-06T13:15:37.557Z,13.00
2023-01-06T13:18:13.682Z,13.00
2023-01-06T13:20:47.651Z,13.10
2023-01-06T13:23:40.007Z,13.00
2023-01-06T13:26:27.629Z,13.00
2023-01-06T13:29:05.996Z,13.00
2023-01-06T13:32:11.193Z,12.90
2023-01-06T13:35:01.696Z,12.90
2023-01-06T13:37:38.285Z,13.00
2023-01-06T13:40:12.807Z,13.10
2023-01-06T13:42:46.921Z,13.00
2023-01-06T13:45:20.108Z,12.90
2023-01-06T13:47:51.036Z,12.90
2023-01-06T13:50:22.059Z,12.90
2023-01-06T13:52:52.688Z,13.00
2023-01-06T13:55:28.706Z,13.00
2023-01-06T13:57:59.803Z,13.00
2023-01-06T14:00:29.794Z,13.00
2023-01-06T14:03:16.484Z,13.00
2023-01-06T14:05:53.836Z,13.00
2023-01-06T14:08:27.602Z,13.00
2023-01-06T14:11:03.296Z,12.90
2023-01-06T14:13:40.103Z,12.90
2023-01-06T14:16:11.528Z,12.90
2023-01-06T14:18:46.011Z,12.90
2023-01-06T14:21:23.019Z,12.90
2023-01-06T14:23:55.716Z,13.00
2023-01-06T14:26:44.311Z,13.00
2023-01-06T14:29:46.527Z,13.00
2023-01-06T14:32:47.867Z,13.10
2023-01-06T14:35:19.119Z,13.10
2023-01-06T14:37:50.765Z,13.00
2023-01-06T14:40:24.409Z,13.00
2023-01-06T14:42:53.049Z,13.00
2023-01-06T14:45:26.024Z,13.00
2023-01-06T14:47:57.731Z,13.00
2023-01-06T14:50:41.942Z,13.00
2023-01-06T14:53:22.049Z,13.00
2023-01-06T14:55:52.571Z,12.90
2023-01-06T14:58:29.860Z,12.90
2023-01-06T15:00:58.642Z,13.00
2023-01-06T15:03:28.367Z,12.90
2023-01-06T15:06:13.051Z,12.90
2023-01-06T15:08:41.305Z,12.80
2023-01-06T15:11:26.249Z,12.80
2023-01-06T15:13:54.586Z,12.80
2023-01-06T15:16:35.116Z,12.80
2023-01-06T15:19:06.834Z,12.70
2023-01-06T15:21:40.577Z,12.60
2023-01-06T15:24:20.540Z,12.50
2023-01-06T15:26:51.341Z,12.40
2023-01-06T15:29:21.517Z,12.30
2023-01-06T15:31:52.443Z,12.40
2023-01-06T15:34:22.813Z,12.40
2023-01-06T15:36:53.854Z,12.50
2023-01-06T15:39:28.043Z,12.60
2023-01-06T15:41:59.931Z,12.70
2023-01-06T15:44:31.004Z,12.60
2023-01-06T15:47:10.241Z,12.60
2023-01-06T15:49:42.261Z,12.50
2023-01-06T15:52:25.292Z,12.50
2023-01-06T15:54:55.051Z,12.40
2023-01-06T15:57:26.646Z,12.40
2023-01-06T15:59:58.416Z,12.50
2023-01-06T16:02:32.038Z,12.40
2023-01-06T16:05:00.914Z,12.40
2023-01-06T16:07:36.728Z,12.40
2023-01-06T16:10:05.936Z,12.40
2023-01-06T16:12:36.141Z,12.40
2023-01-06T16:15:39.755Z,12.30
2023-01-06T16:18:09.960Z,12.30
2023-01-06T16:20:38.234Z,12.40
2023-01-06T16:23:06.862Z,12.20
2023-01-06T16:25:36.681Z,12.30
2023-01-06T16:28:06.807Z,12.30
2023-01-06T16:30:36.592Z,12.30
2023-01-06T16:33:05.637Z,12.30
2023-01-06T16:35:35.846Z,12.30
2023-01-06T16:38:04.338Z,12.30
2023-01-06T16:40:32.796Z,12.30
2023-01-06T16:43:02.252Z,12.30
2023-01-06T16:45:38.896Z,12.30
2023-01-06T16:48:07.675Z,12.30
2023-01-06T16:50:41.284Z,12.30
2023-01-06T16:53:13.335Z,12.30
2023-01-06T16:55:43.258Z,12.30
2023-01-06T16:58:16.935Z,12.30
2023-01-06T17:00:51.750Z,12.30
2023-01-06T17:03:22.795Z,12.30
2023-01-06T17:05:51.988Z,12.20
2023-01-06T17:08:25.986Z,12.30
2023-01-06T17:10:54.873Z,12.30
2023-01-06T17:13:40.767Z,12.30
2023-01-06T17:16:17.111Z,12.30
2023-01-06T17:18:52.369Z,12.30
2023-01-06T17:21:24.615Z,12.20
2023-01-06T17:23:56.453Z,12.20
2023-01-06T17:26:25.227Z,12.30
2023-01-06T17:28:55.354Z,12.30
2023-01-06T17:31:31.994Z,12.30
2023-01-06T17:34:10.263Z,12.40
2023-01-06T17:36:40.758Z,12.30
2023-01-06T17:39:17.130Z,12.20
2023-01-06T17:41:45.519Z,12.30
2023-01-06T17:44:17.052Z,12.20
2023-01-06T17:46:47.604Z,12.20
2023-01-06T17:49:37.038Z,12.10
2023-01-06T17:52:16.049Z,12.20
2023-01-06T17:55:08.152Z,12.20
2023-01-06T17:57:36.798Z,12.30
2023-01-06T18:00:17.562Z,12.30
2023-01-06T18:02:50.140Z,12.20
2023-01-06T18:06:03.991Z,12.20
2023-01-06T18:08:33.905Z,12.20
2023-01-06T18:11:23.153Z,12.20
2023-01-06T18:13:52.159Z,12.10
2023-01-06T18:16:29.098Z,12.10
2023-01-06T18:19:19.393Z,12.20
2023-01-06T18:21:49.877Z,12.10
2023-01-06T18:24:22.450Z,12.10
2023-01-06T18:26:53.924Z,12.20
2023-01-06T18:29:25.121Z,12.20
2023-01-06T18:31:55.257Z,12.20
2023-01-06T18:34:33.258Z,12.10
2023-01-06T18:37:03.078Z,12.10
2023-01-06T18:39:36.432Z,12.10
2023-01-06T18:42:30.045Z,12.20
2023-01-06T18:45:18.316Z,12.10
2023-01-06T18:47:52.817Z,12.10
2023-01-06T18:50:26.620Z,12.00
2023-01-06T18:52:56.285Z,12.00
2023-01-06T18:55:34.333Z,12.00
2023-01-06T18:58:07.459Z,12.00
2023-01-06T19:00:39.332Z,11.90
2023-01-06T19:03:38.629Z,12.00
2023-01-06T19:06:45.471Z,11.90
2023-01-06T19:09:25.465Z,12.00
2023-01-06T19:12:03.501Z,12.00
2023-01-06T19:14:36.775Z,11.90
2023-01-06T19:17:06.879Z,11.90
2023-01-06T19:19:38.755Z,12.00
2023-01-06T19:22:23.847Z,12.00
2023-01-06T19:24:58.538Z,11.90
2023-01-06T19:27:45.584Z,11.90
2023-01-06T19:30:42.373Z,11.80
2023-01-06T19:33:36.801Z,11.90
2023-01-06T19:36:43.936Z,11.80
2023-01-06T19:39:34.026Z,11.90
2023-01-06T19:42:18.077Z,11.90
2023-01-06T19:44:48.273Z,11.80
2023-01-06T19:47:20.516Z,11.90
2023-01-06T19:49:53.240Z,11.80
2023-01-06T19:52:37.227Z,11.80
2023-01-06T19:55:21.099Z,11.70
2023-01-06T19:57:51.638Z,11.70
2023-01-06T20:00:25.712Z,11.80
2023-01-06T20:02:57.875Z,11.80
2023-01-06T20:05:27.274Z,11.80
2023-01-06T20:07:55.813Z,11.80
2023-01-06T20:10:26.379Z,11.70
2023-01-06T20:12:56.196Z,11.70
2023-01-06T20:15:24.409Z,11.80
2023-01-06T20:17:52.754Z,11.80
2023-01-06T20:20:21.179Z,11.80
2023-01-06T20:22:49.362Z,11.80
2023-01-06T20:25:17.870Z,11.80
2023-01-06T20:27:46.263Z,11.80
2023-01-06T20:30:16.004Z,11.80
2023-01-06T20:32:44.621Z,11.70
2023-01-06T20:35:14.445Z,11.70
2023-01-06T20:37:42.636Z,11.70
2023-01-06T20:40:11.788Z,11.70
2023-01-06T20:42:40.112Z,11.80
2023-01-06T20:45:09.267Z,11.80
2023-01-06T20:47:39.121Z,11.90
2023-01-06T20:50:08.620Z,11.90
2023-01-06T20:52:36.889Z,11.90
2023-01-06T20:55:05.946Z,11.90
2023-01-06T20:57:34.253Z,11.90
2023-01-06T21:00:02.610Z,11.80
2023-01-06T21:02:31.341Z,11.90
2023-01-06T21:05:01.120Z,11.90
2023-01-06T21:07:29.275Z,11.90
2023-01-06T21:09:57.831Z,11.90
2023-01-06T21:12:26.653Z,11.90
2023-01-06T21:14:55.018Z,11.90
2023-01-06T21:17:23.743Z,11.90
2023-01-06T21:19:52.090Z,11.90
2023-01-06T21:22:21.901Z,11.80
2023-01-06T21:24:50.392Z,11.90
2023-01-06T21:27:18.709Z,11.90
2023-01-06T21:29:46.904Z,11.90
2023-01-06T21:32:15.586Z,11.90
2023-01-06T21:34:43.800Z,11.80
2023-01-06T21:37:12.224Z,11.80
2023-01-06T21:39:42.287Z,11.80
2023-01-06T21:42:27.869Z,11.90
2023-01-06T21:44:56.476Z,11.80
2023-01-06T21:47:24.710Z,11.90
2023-01-06T21:49:53.104Z,12.10
2023-01-06T21:52:21.627Z,12.00
2023-01-06T21:54:51.293Z,12.00
2023-01-06T21:57:19.502Z,12.00
2023-01-06T21:59:48.179Z,11.90
2023-01-06T22:02:16.709Z,12.00
2023-01-06T22:04:45.042Z,11.90
2023-01-06T22:07:15.388Z,11.90
2023-01-06T22:09:45.656Z,11.90
2023-01-06T22:12:17.674Z,12.00
2023-01-06T22:14:46.385Z,12.00
2023-01-06T22:17:14.655Z,11.90
2023-01-06T22:19:44.656Z,11.90
2023-01-06T22:22:13.384Z,11.90
2023-01-06T22:24:42.259Z,11.90
2023-01-06T22:27:11.262Z,11.90
2023-01-06T22:29:40.883Z,11.80
2023-01-06T22:32:09.111Z,11.80
2023-01-06T22:34:37.579Z,11.70
2023-01-06T22:37:05.790Z,11.70
2023-01-06T22:39:34.032Z,11.70
2023-01-06T22:42:02.768Z,11.80
2023-01-06T22:44:30.988Z,11.70
2023-01-06T22:47:00.529Z,11.70
2023-01-06T22:49:28.889Z,11.60
2023-01-06T22:51:57.135Z,11.70
2023-01-06T22:54:25.817Z,11.70
2023-01-06T22:56:54.378Z,11.60
2023-01-06T22:59:22.853Z,11.60
2023-01-06T23:01:51.169Z,11.50
2023-01-06T23:04:21.149Z,11.50
2023-01-06T23:06:49.407Z,11.40
2023-01-06T23:09:18.384Z,11.50
2023-01-06T23:11:46.712Z,11.50
2023-01-06T23:14:15.191Z,11.60
2023-01-06T23:16:45.305Z,11.50
2023-01-06T23:19:15.808Z,11.40
2023-01-06T23:21:45.983Z,11.50
2023-01-06T23:24:14.539Z,11.40
2023-01-06T23:26:45.069Z,11.50
2023-01-06T23:29:14.811Z,11.40
2023-01-06T23:31:45.016Z,11.40
2023-01-06T23:34:15.050Z,11.40
2023-01-06T23:36:44.938Z,11.50
2023-01-06T23:39:17.068Z,11.50
2023-01-06T23:41:45.271Z,11.40
2023-01-06T23:44:16.316Z,11.40
2023-01-06T23:46:45.881Z,11.40
2023-01-06T23:49:16.376Z,11.40
2023-01-06T23:51:46.686Z,11.30
2023-01-06T23:54:15.576Z,11.40
2023-01-06T23:56:43.767Z,11.40
2023-01-06T23:59:13.473Z,11.40
